Time;durP1;ratioP1;P1;durP2;ratioP2;P2;SDS_P1;SDS_P2;PMS_P1;PMS_P2;Temp;Humidity;BMP_temperature;BMP_pressure;BME280_temperature;BME280_humidity;BME280_pressure;Samples;Min_cycle;Max_cycle;Signal;HPM_P1;HPM_P2
2021/03/27 00:02:26;;;;;;;5.90;2.80;;;;;;;;;;5030461;28;20196;-71
2021/03/27 00:05:14;;;;;;;6.83;2.50;;;;;;;;;;5030186;28;20272;-71
2021/03/27 00:07:56;;;;;;;6.20;2.73;;;;;;;;;;5032267;28;20272;-72
2021/03/27 00:10:28;;;;;;;5.37;2.47;;;;;;;;;;5034970;28;20621;-71
2021/03/27 00:13:18;;;;;;;3.27;2.20;;;;;;;;;;5040508;28;20177;-71
2021/03/27 00:16:21;;;;;;;7.13;2.83;;;;;;;;;;5030465;28;22716;-71
2021/03/27 00:19:19;;;;;;;3.63;1.57;;;;;;;;;;5041798;28;20298;-72
2021/03/27 00:21:53;;;;;;;7.80;1.50;;;;;;;;;;5033355;28;20204;-72
2021/03/27 00:24:27;;;;;;;3.53;1.87;;;;;;;;;;5049399;28;20174;-72
2021/03/27 00:27:13;;;;;;;3.43;1.77;;;;;;;;;;5038254;28;20200;-71
2021/03/27 00:29:45;;;;;;;3.13;1.40;;;;;;;;;;5042829;28;20190;-72
2021/03/27 00:32:16;;;;;;;5.30;1.33;;;;;;;;;;5033046;28;20187;-71
2021/03/27 00:34:51;;;;;;;1.43;0.93;;;;;;;;;;5042286;28;20566;-71
2021/03/27 00:37:21;;;;;;;3.00;1.23;;;;;;;;;;5038273;28;20220;-72
2021/03/27 00:40:09;;;;;;;3.03;1.13;;;;;;;;;;5041449;28;20195;-72
2021/03/27 00:42:39;;;;;;;3.17;1.37;;;;;;;;;;5040724;28;20223;-73
2021/03/27 00:45:11;;;;;;;3.20;0.93;;;;;;;;;;5040889;28;20183;-71
2021/03/27 00:47:39;;;;;;;1.07;0.93;;;;;;;;;;5035912;28;20193;-71
2021/03/27 00:50:11;;;;;;;1.73;1.07;;;;;;;;;;5041829;28;20189;-71
2021/03/27 00:52:41;;;;;;;2.57;1.20;;;;;;;;;;5039298;28;20193;-71
2021/03/27 00:55:20;;;;;;;1.27;1.00;;;;;;;;;;5040865;28;20713;-71
2021/03/27 00:57:55;;;;;;;1.83;0.80;;;;;;;;;;5039122;28;20200;-71
2021/03/27 01:00:26;;;;;;;1.57;1.10;;;;;;;;;;5044127;28;20506;-71
2021/03/27 01:02:57;;;;;;;3.10;0.90;;;;;;;;;;5048520;28;20251;-71
2021/03/27 01:05:26;;;;;;;1.40;1.07;;;;;;;;;;5039404;28;20186;-71
2021/03/27 01:07:54;;;;;;;1.43;1.00;;;;;;;;;;5042763;28;20247;-71
2021/03/27 01:10:29;;;;;;;2.33;1.10;;;;;;;;;;5034866;28;20202;-71
2021/03/27 01:12:56;;;;;;;2.50;1.00;;;;;;;;;;5038572;28;20196;-71
2021/03/27 01:15:29;;;;;;;2.50;1.20;;;;;;;;;;5033665;28;20212;-71
2021/03/27 01:18:00;;;;;;;1.93;1.33;;;;;;;;;;5042472;28;20200;-71
2021/03/27 01:20:33;;;;;;;2.50;1.30;;;;;;;;;;5032083;28;20186;-71
2021/03/27 01:22:58;;;;;;;3.73;1.90;;;;;;;;;;5045858;28;20216;-71
2021/03/27 01:25:27;;;;;;;3.63;2.10;;;;;;;;;;5034711;28;20178;-71
2021/03/27 01:28:09;;;;;;;3.60;2.50;;;;;;;;;;5039136;28;20192;-71
2021/03/27 01:30:43;;;;;;;3.57;2.37;;;;;;;;;;5033493;28;20201;-71
2021/03/27 01:33:21;;;;;;;4.83;3.00;;;;;;;;;;5038417;28;20177;-71
2021/03/27 01:36:08;;;;;;;4.40;3.00;;;;;;;;;;5034920;28;20195;-71
2021/03/27 01:38:40;;;;;;;6.67;3.37;;;;;;;;;;5035869;28;20189;-71
2021/03/27 01:41:37;;;;;;;4.30;3.90;;;;;;;;;;5036209;28;20208;-71
2021/03/27 01:44:19;;;;;;;7.57;4.83;;;;;;;;;;5043149;28;20189;-71
2021/03/27 01:47:04;;;;;;;6.07;4.07;;;;;;;;;;5032843;28;20237;-71
2021/03/27 01:49:46;;;;;;;5.97;5.00;;;;;;;;;;5041959;28;20185;-71
2021/03/27 01:52:40;;;;;;;6.53;5.23;;;;;;;;;;5037558;28;20188;-71
2021/03/27 01:55:20;;;;;;;10.50;5.73;;;;;;;;;;5038995;28;20206;-72
2021/03/27 01:57:55;;;;;;;12.53;7.13;;;;;;;;;;5033685;28;20185;-72
2021/03/27 02:00:30;;;;;;;10.90;7.40;;;;;;;;;;5043211;28;20181;-72
2021/03/27 02:03:31;;;;;;;9.93;7.43;;;;;;;;;;5029929;28;20189;-71
2021/03/27 02:06:09;;;;;;;9.00;7.57;;;;;;;;;;5041888;28;20177;-72
2021/03/27 02:09:04;;;;;;;10.03;7.90;;;;;;;;;;5026444;28;20189;-72
2021/03/27 02:11:43;;;;;;;13.80;8.67;;;;;;;;;;5036241;28;20218;-71
2021/03/27 02:14:18;;;;;;;11.93;8.63;;;;;;;;;;5041022;28;20274;-72
2021/03/27 02:16:51;;;;;;;11.73;8.60;;;;;;;;;;5037652;28;20173;-73
2021/03/27 02:19:31;;;;;;;12.87;8.93;;;;;;;;;;5033212;28;20220;-72
2021/03/27 02:22:26;;;;;;;12.27;8.73;;;;;;;;;;5041176;28;20184;-72
2021/03/27 02:25:09;;;;;;;11.67;8.57;;;;;;;;;;5038449;28;20649;-72
2021/03/27 02:27:48;;;;;;;13.53;8.70;;;;;;;;;;5031073;28;20193;-73
2021/03/27 02:30:17;;;;;;;12.87;9.03;;;;;;;;;;5041880;28;20188;-73
2021/03/27 02:33:10;;;;;;;11.93;8.17;;;;;;;;;;5032500;28;20653;-73
2021/03/27 02:35:53;;;;;;;10.27;8.10;;;;;;;;;;5039759;28;20599;-72
2021/03/27 02:38:26;;;;;;;12.93;8.77;;;;;;;;;;5025287;28;20532;-72
2021/03/27 02:41:14;;;;;;;10.90;8.00;;;;;;;;;;5040280;28;20185;-72
2021/03/27 02:43:47;;;;;;;9.90;7.83;;;;;;;;;;5031695;28;20178;-72
2021/03/27 02:46:25;;;;;;;10.10;7.00;;;;;;;;;;5039545;28;20708;-73
2021/03/27 02:49:25;;;;;;;8.73;6.87;;;;;;;;;;5028135;28;20291;-72
2021/03/27 02:52:35;;;;;;;11.60;7.20;;;;;;;;;;5042115;28;20308;-72
2021/03/27 02:55:28;;;;;;;7.37;5.67;;;;;;;;;;5030014;28;20214;-72
2021/03/27 02:57:59;;;;;;;8.87;6.30;;;;;;;;;;5039577;28;20185;-72
2021/03/27 03:00:53;;;;;;;10.90;6.97;;;;;;;;;;5026745;28;20194;-72
2021/03/27 03:03:24;;;;;;;8.17;5.77;;;;;;;;;;5033005;28;20208;-72
2021/03/27 03:05:57;;;;;;;9.00;5.67;;;;;;;;;;5035415;28;20185;-72
2021/03/27 03:08:43;;;;;;;11.33;5.47;;;;;;;;;;5040072;28;20227;-72
2021/03/27 03:11:13;;;;;;;7.50;5.10;;;;;;;;;;5034439;28;20678;-72
2021/03/27 03:13:55;;;;;;;9.73;5.40;;;;;;;;;;5043106;28;20209;-71
2021/03/27 03:16:33;;;;;;;8.30;4.30;;;;;;;;;;5027160;28;20730;-72
2021/03/27 03:19:19;;;;;;;5.87;3.20;;;;;;;;;;5038768;28;20198;-72
2021/03/27 03:22:15;;;;;;;4.23;3.00;;;;;;;;;;5036598;28;20189;-72
2021/03/27 03:24:58;;;;;;;5.20;2.80;;;;;;;;;;5038522;28;20185;-71
2021/03/27 03:28:07;;;;;;;5.67;2.37;;;;;;;;;;5031575;28;20194;-72
2021/03/27 03:30:59;;;;;;;2.57;1.97;;;;;;;;;;5031404;28;20533;-72
2021/03/27 03:33:34;;;;;;;6.63;1.77;;;;;;;;;;5042032;28;20603;-72
2021/03/27 03:36:06;;;;;;;2.40;1.43;;;;;;;;;;5027008;28;21982;-72
2021/03/27 03:39:01;;;;;;;7.60;1.70;;;;;;;;;;5038806;28;20186;-71
2021/03/27 03:42:03;;;;;;;4.63;1.60;;;;;;;;;;5034315;28;20596;-72
2021/03/27 03:44:28;;;;;;;4.43;2.00;;;;;;;;;;5040254;28;20269;-72
2021/03/27 03:47:13;;;;;;;5.60;2.03;;;;;;;;;;5028721;28;20260;-72
2021/03/27 03:50:16;;;;;;;4.53;2.40;;;;;;;;;;5039227;28;20177;-71
2021/03/27 03:53:09;;;;;;;7.80;2.80;;;;;;;;;;5028880;28;20197;-72
2021/03/27 03:56:04;;;;;;;7.43;2.70;;;;;;;;;;5041511;28;20676;-72
2021/03/27 03:58:48;;;;;;;7.17;3.00;;;;;;;;;;5030097;28;20178;-72
2021/03/27 04:01:30;;;;;;;7.10;2.70;;;;;;;;;;5043698;28;20179;-72
2021/03/27 04:04:07;;;;;;;6.53;3.13;;;;;;;;;;5032017;28;20704;-72
2021/03/27 04:06:36;;;;;;;6.67;3.57;;;;;;;;;;5040769;28;20257;-72
2021/03/27 04:09:08;;;;;;;10.53;4.13;;;;;;;;;;5029791;28;20190;-71
2021/03/27 04:11:49;;;;;;;7.80;4.07;;;;;;;;;;5036887;28;20193;-72
2021/03/27 04:14:39;;;;;;;8.50;3.63;;;;;;;;;;5033215;28;20549;-72
2021/03/27 04:17:11;;;;;;;11.33;4.70;;;;;;;;;;5039531;28;20310;-73
2021/03/27 04:19:44;;;;;;;8.67;4.97;;;;;;;;;;5032264;28;20185;-72
2021/03/27 04:22:25;;;;;;;13.27;5.70;;;;;;;;;;5036576;28;20193;-72
2021/03/27 04:24:59;;;;;;;11.53;6.30;;;;;;;;;;5026219;28;20552;-73
2021/03/27 04:27:33;;;;;;;12.03;6.83;;;;;;;;;;5043079;28;20185;-73
2021/03/27 04:30:26;;;;;;;14.33;6.87;;;;;;;;;;5028145;28;20288;-72
2021/03/27 04:33:19;;;;;;;14.60;7.47;;;;;;;;;;5041280;28;20217;-73
2021/03/27 04:36:06;;;;;;;14.40;7.63;;;;;;;;;;5029148;28;20213;-72
2021/03/27 04:38:51;;;;;;;19.57;8.23;;;;;;;;;;5037593;28;20194;-73
2021/03/27 04:41:43;;;;;;;15.07;8.37;;;;;;;;;;5038059;28;20606;-72
2021/03/27 04:44:32;;;;;;;16.17;8.90;;;;;;;;;;5032515;28;20254;-72
2021/03/27 04:47:25;;;;;;;19.70;8.57;;;;;;;;;;5038720;28;20233;-72
2021/03/27 04:49:59;;;;;;;16.47;8.97;;;;;;;;;;5026793;28;20194;-72
2021/03/27 04:52:36;;;;;;;18.77;9.80;;;;;;;;;;5037321;28;20190;-72
2021/03/27 04:55:30;;;;;;;25.77;10.73;;;;;;;;;;5027089;28;20680;-73
2021/03/27 04:58:33;;;;;;;17.67;10.07;;;;;;;;;;5038825;28;20190;-73
2021/03/27 05:00:58;;;;;;;17.37;10.20;;;;;;;;;;5029974;28;20928;-73
2021/03/27 05:03:35;;;;;;;20.57;10.70;;;;;;;;;;5038366;28;20229;-72
2021/03/27 05:06:10;;;;;;;22.90;11.83;;;;;;;;;;5030920;28;20196;-73
2021/03/27 05:08:56;;;;;;;19.83;10.93;;;;;;;;;;5044022;28;20185;-73
2021/03/27 05:11:30;;;;;;;26.53;12.03;;;;;;;;;;5035289;28;20280;-72
2021/03/27 05:14:17;;;;;;;27.87;11.97;;;;;;;;;;5042466;28;21022;-73
2021/03/27 05:16:52;;;;;;;24.70;11.57;;;;;;;;;;5030154;28;20200;-73
2021/03/27 05:19:36;;;;;;;24.37;12.37;;;;;;;;;;5041107;28;20177;-73
2021/03/27 05:22:09;;;;;;;22.47;11.47;;;;;;;;;;5032166;28;20198;-73
2021/03/27 05:25:01;;;;;;;23.77;11.67;;;;;;;;;;5040956;28;20217;-73
2021/03/27 05:27:44;;;;;;;20.80;10.67;;;;;;;;;;5013522;28;20209;-73
2021/03/27 05:30:37;;;;;;;23.57;12.70;;;;;;;;;;5042035;28;20185;-70
2021/03/27 05:33:24;;;;;;;22.00;12.07;;;;;;;;;;5030742;28;20892;-72
2021/03/27 05:36:14;;;;;;;22.63;11.97;;;;;;;;;;5034403;28;20688;-72
2021/03/27 05:38:47;;;;;;;18.27;10.90;;;;;;;;;;5034547;28;20678;-72
2021/03/27 05:41:50;;;;;;;25.90;10.83;;;;;;;;;;5038119;28;20182;-73
2021/03/27 05:44:33;;;;;;;21.80;10.57;;;;;;;;;;5032429;28;20198;-72
2021/03/27 05:47:44;;;;;;;20.00;9.33;;;;;;;;;;5036244;28;20237;-73
2021/03/27 05:50:09;;;;;;;21.03;10.37;;;;;;;;;;5035639;28;20664;-72
2021/03/27 05:53:11;;;;;;;18.00;10.10;;;;;;;;;;5032250;28;20182;-73
2021/03/27 05:56:23;;;;;;;18.20;9.23;;;;;;;;;;5039310;28;20192;-73
2021/03/27 05:59:07;;;;;;;25.43;8.90;;;;;;;;;;5030072;28;20224;-72
2021/03/27 06:01:56;;;;;;;22.50;8.53;;;;;;;;;;5038004;28;20204;-72
2021/03/27 06:05:15;;;;;;;18.40;8.33;;;;;;;;;;5030334;28;20229;-73
2021/03/27 06:07:54;;;;;;;12.73;7.10;;;;;;;;;;5022130;28;20202;-73
2021/03/27 06:10:50;;;;;;;14.03;7.07;;;;;;;;;;5030274;28;20185;-73
2021/03/27 06:13:44;;;;;;;18.07;7.63;;;;;;;;;;5036137;28;20185;-73
2021/03/27 06:16:35;;;;;;;13.87;6.70;;;;;;;;;;5036074;28;20221;-70
2021/03/27 06:19:29;;;;;;;11.40;5.37;;;;;;;;;;5031580;28;21579;-70
2021/03/27 06:22:13;;;;;;;13.00;5.40;;;;;;;;;;5034024;28;20250;-73
2021/03/27 06:25:16;;;;;;;17.17;5.40;;;;;;;;;;5033110;28;20227;-72
2021/03/27 06:28:12;;;;;;;11.00;5.67;;;;;;;;;;5038749;28;20616;-72
2021/03/27 06:30:41;;;;;;;17.80;5.67;;;;;;;;;;5008098;28;21142;-73
2021/03/27 06:33:59;;;;;;;15.03;5.30;;;;;;;;;;5038737;28;20718;-73
2021/03/27 06:36:35;;;;;;;13.83;4.77;;;;;;;;;;5020637;28;20208;-72
2021/03/27 06:39:31;;;;;;;15.97;5.40;;;;;;;;;;5039052;28;20227;-71
2021/03/27 06:41:59;;;;;;;18.33;4.83;;;;;;;;;;5027353;28;20181;-71
2021/03/27 06:44:38;;;;;;;11.50;4.80;;;;;;;;;;5038987;28;20173;-72
2021/03/27 06:47:23;;;;;;;16.33;4.93;;;;;;;;;;5032407;28;20233;-72
2021/03/27 06:49:58;;;;;;;13.63;4.50;;;;;;;;;;5037000;28;20714;-72
2021/03/27 06:52:45;;;;;;;15.73;4.80;;;;;;;;;;5025925;28;21401;-72
2021/03/27 06:55:40;;;;;;;17.67;4.57;;;;;;;;;;5033274;28;20224;-72
2021/03/27 06:58:20;;;;;;;12.03;3.70;;;;;;;;;;5033206;28;20196;-72
2021/03/27 07:01:14;;;;;;;10.87;3.80;;;;;;;;;;5038206;28;20197;-72
2021/03/27 07:03:45;;;;;;;14.30;4.50;;;;;;;;;;5032253;28;20292;-72
2021/03/27 07:06:40;;;;;;;11.53;4.00;;;;;;;;;;5026370;28;20181;-72
2021/03/27 07:09:41;;;;;;;12.57;3.60;;;;;;;;;;5033704;28;20225;-73
2021/03/27 07:12:25;;;;;;;11.77;3.90;;;;;;;;;;5021456;28;20799;-70
2021/03/27 07:15:19;;;;;;;14.17;3.43;;;;;;;;;;5035155;28;20362;-71
2021/03/27 07:18:25;;;;;;;14.70;3.50;;;;;;;;;;5026729;28;20221;-71
2021/03/27 07:21:32;;;;;;;13.90;3.40;;;;;;;;;;5036202;28;20181;-71
2021/03/27 07:24:19;;;;;;;10.07;2.70;;;;;;;;;;5023867;28;20193;-72
2021/03/27 07:27:10;;;;;;;14.57;3.37;;;;;;;;;;5033333;28;20185;-71
2021/03/27 07:30:05;;;;;;;12.43;2.30;;;;;;;;;;5028802;28;20197;-71
2021/03/27 07:32:37;;;;;;;14.50;2.83;;;;;;;;;;5025267;28;20197;-71
2021/03/27 07:35:21;;;;;;;8.90;2.00;;;;;;;;;;5037303;28;20312;-71
2021/03/27 07:38:31;;;;;;;13.43;2.30;;;;;;;;;;5021067;28;20197;-71
2021/03/27 07:41:25;;;;;;;11.10;2.33;;;;;;;;;;5034550;28;20190;-71
2021/03/27 07:44:08;;;;;;;14.07;2.00;;;;;;;;;;5026425;28;20645;-70
2021/03/27 07:47:17;;;;;;;10.53;1.70;;;;;;;;;;5035214;28;20217;-71
2021/03/27 07:50:16;;;;;;;12.33;2.17;;;;;;;;;;5028973;28;20626;-72
2021/03/27 07:52:47;;;;;;;12.87;2.53;;;;;;;;;;5031650;28;20813;-71
2021/03/27 07:55:47;;;;;;;14.20;2.90;;;;;;;;;;5020355;28;20275;-71
2021/03/27 07:58:42;;;;;;;9.93;1.90;;;;;;;;;;5031116;28;20190;-71
2021/03/27 08:01:39;;;;;;;10.30;2.03;;;;;;;;;;5032133;28;20267;-70
2021/03/27 08:04:38;;;;;;;11.80;2.13;;;;;;;;;;5022939;28;20630;-70
2021/03/27 08:07:22;;;;;;;15.37;2.00;;;;;;;;;;5026530;28;20272;-70
2021/03/27 08:09:50;;;;;;;14.93;2.30;;;;;;;;;;5023527;28;20197;-70
2021/03/27 08:12:18;;;;;;;15.33;2.33;;;;;;;;;;5028619;28;20189;-70
2021/03/27 08:15:21;;;;;;;14.50;2.10;;;;;;;;;;5021248;28;20190;-70
2021/03/27 08:18:11;;;;;;;12.80;2.53;;;;;;;;;;5030473;28;20188;-71
2021/03/27 08:20:46;;;;;;;14.57;2.73;;;;;;;;;;5018601;28;20186;-70
2021/03/27 08:23:49;;;;;;;14.00;2.30;;;;;;;;;;5029728;28;20188;-70
2021/03/27 08:26:52;;;;;;;9.97;1.87;;;;;;;;;;5016947;28;20189;-70
2021/03/27 08:29:58;;;;;;;11.93;2.63;;;;;;;;;;5035682;28;20208;-70
2021/03/27 08:33:01;;;;;;;8.70;2.13;;;;;;;;;;4328556;28;10000769;-70
2021/03/27 08:36:06;;;;;;;15.63;2.30;;;;;;;;;;5034753;28;20600;-71
2021/03/27 08:38:34;;;;;;;15.83;2.73;;;;;;;;;;5034234;28;20277;-71
2021/03/27 08:41:08;;;;;;;11.83;2.10;;;;;;;;;;5027396;28;20193;-71
2021/03/27 08:43:43;;;;;;;13.93;3.57;;;;;;;;;;5032631;28;20189;-71
2021/03/27 08:46:27;;;;;;;13.23;2.33;;;;;;;;;;5023240;28;20422;-71
2021/03/27 08:49:12;;;;;;;9.87;2.00;;;;;;;;;;5038768;28;20200;-71
2021/03/27 08:52:01;;;;;;;10.63;1.63;;;;;;;;;;5033455;28;20668;-70
2021/03/27 08:54:45;;;;;;;9.10;1.73;;;;;;;;;;5029876;28;20240;-71
2021/03/27 08:57:46;;;;;;;10.07;2.13;;;;;;;;;;5024684;28;20581;-71
2021/03/27 09:00:48;;;;;;;11.07;2.67;;;;;;;;;;5030084;28;20239;-70
2021/03/27 09:03:36;;;;;;;13.60;2.33;;;;;;;;;;5020098;28;20880;-70
2021/03/27 09:06:22;;;;;;;17.13;2.10;;;;;;;;;;5031393;28;20198;-70
2021/03/27 09:09:14;;;;;;;7.57;1.97;;;;;;;;;;5022595;28;20197;-70
2021/03/27 09:11:58;;;;;;;16.80;2.37;;;;;;;;;;5032155;28;20541;-70
2021/03/27 09:14:32;;;;;;;13.10;2.37;;;;;;;;;;5032574;28;20635;-70
2021/03/27 09:17:33;;;;;;;9.33;2.27;;;;;;;;;;5038639;28;20194;-69
2021/03/27 09:20:35;;;;;;;9.37;1.73;;;;;;;;;;5027390;28;20254;-70
2021/03/27 09:23:18;;;;;;;11.33;2.10;;;;;;;;;;5020281;28;20197;-70
2021/03/27 09:26:20;;;;;;;13.32;2.30;;;;;;;;;;5032924;28;20185;-70
2021/03/27 09:29:22;;;;;;;12.53;2.20;;;;;;;;;;5027659;28;20187;-69
2021/03/27 09:32:06;;;;;;;8.87;1.73;;;;;;;;;;5035353;28;20208;-70
2021/03/27 09:35:16;;;;;;;11.20;1.77;;;;;;;;;;5028219;28;20212;-70
2021/03/27 09:38:05;;;;;;;14.10;2.20;;;;;;;;;;5027200;28;20786;-70
2021/03/27 09:40:55;;;;;;;12.75;2.55;;;;;;;;;;5023850;28;20427;-70
2021/03/27 09:43:45;;;;;;;8.80;1.50;;;;;;;;;;5032594;28;20198;-71
2021/03/27 09:46:51;;;;;;;8.00;1.40;;;;;;;;;;5025557;28;20282;-70
2021/03/27 09:49:29;;;;;;;7.23;1.30;;;;;;;;;;5025046;28;20654;-72
2021/03/27 09:52:12;;;;;;;5.07;0.90;;;;;;;;;;5036730;28;20185;-75
2021/03/27 09:54:50;;;;;;;7.27;0.80;;;;;;;;;;5029373;28;20602;-74
2021/03/27 09:57:26;;;;;;;5.80;0.70;;;;;;;;;;5039299;28;20638;-73
2021/03/27 10:00:10;;;;;;;4.40;1.00;;;;;;;;;;5029779;28;20189;-72
2021/03/27 10:02:39;;;;;;;5.77;0.97;;;;;;;;;;5041390;28;20609;-73
2021/03/27 10:05:32;;;;;;;3.53;0.70;;;;;;;;;;5024323;28;20244;-73
2021/03/27 10:08:19;;;;;;;5.80;0.90;;;;;;;;;;5033255;28;20697;-71
2021/03/27 10:11:00;;;;;;;5.63;0.93;;;;;;;;;;5028845;28;24995;-72
2021/03/27 10:13:43;;;;;;;4.57;0.90;;;;;;;;;;5034659;28;20270;-72
2021/03/27 10:16:13;;;;;;;5.27;1.30;;;;;;;;;;5020834;28;20188;-72
2021/03/27 10:19:01;;;;;;;6.70;0.93;;;;;;;;;;5033600;28;20189;-71
2021/03/27 10:21:35;;;;;;;4.47;0.73;;;;;;;;;;5026430;28;20194;-71
2021/03/27 10:24:11;;;;;;;4.83;0.90;;;;;;;;;;5037037;28;20597;-71
2021/03/27 10:26:46;;;;;;;2.53;0.63;;;;;;;;;;5020189;28;20316;-71
2021/03/27 10:32:24;;;;;;;6.93;0.90;;;;;;;;;;5029477;28;20197;-70
2021/03/27 10:34:59;;;;;;;5.60;0.80;;;;;;;;;;5035245;28;20577;-71
2021/03/27 10:37:40;;;;;;;5.93;1.10;;;;;;;;;;5027203;28;20230;-71
2021/03/27 10:40:34;;;;;;;4.70;0.80;;;;;;;;;;5032452;28;20216;-70
2021/03/27 10:43:32;;;;;;;6.27;0.97;;;;;;;;;;5028458;28;20225;-70
2021/03/27 10:46:07;;;;;;;5.90;1.30;;;;;;;;;;5034593;28;20222;-70
2021/03/27 10:49:04;;;;;;;4.80;1.20;;;;;;;;;;5021769;28;20657;-71
2021/03/27 10:51:45;;;;;;;7.70;1.80;;;;;;;;;;5036384;28;20278;-70
2021/03/27 10:54:46;;;;;;;10.27;1.60;;;;;;;;;;5019450;28;20206;-70
2021/03/27 10:58:05;;;;;;;6.30;1.43;;;;;;;;;;5034826;28;20564;-70
2021/03/27 11:00:42;;;;;;;7.60;1.90;;;;;;;;;;5030365;28;20185;-71
2021/03/27 11:03:32;;;;;;;10.05;2.28;;;;;;;;;;5027111;28;20201;-71
2021/03/27 11:06:31;;;;;;;11.27;1.40;;;;;;;;;;5032205;28;20182;-70
2021/03/27 11:09:18;;;;;;;11.90;1.77;;;;;;;;;;5023204;28;20198;-70
2021/03/27 11:12:10;;;;;;;11.60;1.83;;;;;;;;;;5034432;28;20191;-70
2021/03/27 11:14:58;;;;;;;7.50;1.58;;;;;;;;;;5032571;28;20205;-71
2021/03/27 11:18:11;;;;;;;8.82;2.30;;;;;;;;;;5025831;28;20178;-71
2021/03/27 11:21:18;;;;;;;10.15;1.60;;;;;;;;;;4980132;28;20537;-70
2021/03/27 11:24:05;;;;;;;9.15;1.60;;;;;;;;;;5028391;28;20224;-70
2021/03/27 11:26:46;;;;;;;6.72;0.85;;;;;;;;;;5019583;28;20284;-70
2021/03/27 11:29:33;;;;;;;7.88;1.75;;;;;;;;;;5028292;28;20220;-71
2021/03/27 11:32:08;;;;;;;7.72;1.20;;;;;;;;;;5027128;28;20178;-71
2021/03/27 11:34:59;;;;;;;8.73;1.70;;;;;;;;;;5031890;28;20767;-71
2021/03/27 11:37:39;;;;;;;9.00;1.15;;;;;;;;;;5033110;28;20197;-70
2021/03/27 11:40:26;;;;;;;4.60;1.20;;;;;;;;;;5032199;28;20278;-70
2021/03/27 11:43:00;;;;;;;6.60;1.40;;;;;;;;;;5019694;28;20272;-70
2021/03/27 11:45:46;;;;;;;8.40;1.67;;;;;;;;;;5019281;28;20206;-70
2021/03/27 11:48:38;;;;;;;8.03;1.30;;;;;;;;;;5030471;28;20268;-70
2021/03/27 11:51:36;;;;;;;7.63;1.60;;;;;;;;;;5019667;28;20197;-71
2021/03/27 11:54:05;;;;;;;6.53;1.33;;;;;;;;;;5021170;28;20355;-72
2021/03/27 11:56:36;;;;;;;9.87;1.33;;;;;;;;;;5002436;28;20227;-70
2021/03/27 11:59:42;;;;;;;7.97;1.83;;;;;;;;;;5030357;28;20769;-70
2021/03/27 12:02:35;;;;;;;9.50;1.60;;;;;;;;;;5023365;28;20231;-70
2021/03/27 12:05:14;;;;;;;8.50;1.60;;;;;;;;;;5023549;28;20255;-71
2021/03/27 12:08:03;;;;;;;6.70;1.40;;;;;;;;;;5023506;28;20251;-71
2021/03/27 12:10:37;;;;;;;5.93;1.13;;;;;;;;;;5034526;28;20193;-71
2021/03/27 12:13:13;;;;;;;6.93;1.03;;;;;;;;;;5026455;28;20203;-71
2021/03/27 12:16:06;;;;;;;5.17;0.90;;;;;;;;;;5030392;28;21744;-71
2021/03/27 12:18:56;;;;;;;6.83;1.13;;;;;;;;;;5028441;28;20192;-71
2021/03/27 12:21:34;;;;;;;8.63;1.30;;;;;;;;;;5032404;28;20196;-71
2021/03/27 12:24:11;;;;;;;11.30;1.27;;;;;;;;;;5028404;28;20193;-72
2021/03/27 12:26:55;;;;;;;5.10;1.30;;;;;;;;;;5031775;28;20198;-70
2021/03/27 12:29:39;;;;;;;5.80;1.50;;;;;;;;;;5025894;28;20181;-70
2021/03/27 12:32:42;;;;;;;8.57;1.47;;;;;;;;;;5033968;28;20185;-71
2021/03/27 12:35:17;;;;;;;6.97;1.43;;;;;;;;;;5027789;28;20291;-74
2021/03/27 12:38:07;;;;;;;11.30;1.23;;;;;;;;;;5035721;28;20184;-72
2021/03/27 12:40:52;;;;;;;11.90;1.40;;;;;;;;;;5034218;28;20292;-73
2021/03/27 12:43:21;;;;;;;12.00;1.83;;;;;;;;;;5034974;28;20178;-76
2021/03/27 12:45:57;;;;;;;11.23;2.07;;;;;;;;;;5026221;28;20234;-74
2021/03/27 12:48:30;;;;;;;9.13;1.77;;;;;;;;;;5040152;28;20188;-74
2021/03/27 12:51:24;;;;;;;10.40;1.73;;;;;;;;;;5028982;28;20691;-73
2021/03/27 12:54:28;;;;;;;8.20;1.73;;;;;;;;;;5033216;28;20193;-71
2021/03/27 12:57:05;;;;;;;7.67;1.70;;;;;;;;;;4337089;28;10000711;-73
2021/03/27 12:59:42;;;;;;;9.87;1.47;;;;;;;;;;5029309;28;20431;-74
2021/03/27 13:02:49;;;;;;;10.40;1.53;;;;;;;;;;5037172;28;20712;-75
2021/03/27 13:05:23;;;;;;;18.13;2.27;;;;;;;;;;5027003;28;20220;-75
2021/03/27 13:08:00;;;;;;;20.13;1.60;;;;;;;;;;5035188;28;20186;-73
2021/03/27 13:10:56;;;;;;;7.03;1.30;;;;;;;;;;5026277;28;20243;-73
2021/03/27 13:13:36;;;;;;;5.30;1.17;;;;;;;;;;5035909;28;20208;-71
2021/03/27 13:16:26;;;;;;;6.23;0.93;;;;;;;;;;5029001;28;20212;-73
2021/03/27 13:19:10;;;;;;;6.23;0.90;;;;;;;;;;5037447;28;20182;-71
2021/03/27 13:21:57;;;;;;;5.63;1.30;;;;;;;;;;5025194;28;20329;-70
2021/03/27 13:24:35;;;;;;;8.70;1.07;;;;;;;;;;5033999;28;20178;-70
2021/03/27 13:27:25;;;;;;;8.13;1.67;;;;;;;;;;5029091;28;20185;-70
2021/03/27 13:29:54;;;;;;;6.87;1.70;;;;;;;;;;5036863;28;20545;-70
2021/03/27 13:32:28;;;;;;;12.47;2.10;;;;;;;;;;5028799;28;20663;-70
2021/03/27 13:35:05;;;;;;;8.43;1.57;;;;;;;;;;5035788;28;20243;-70
2021/03/27 13:37:47;;;;;;;11.30;1.70;;;;;;;;;;5027449;28;20291;-70
2021/03/27 13:40:19;;;;;;;8.03;1.60;;;;;;;;;;5042596;28;20264;-70
2021/03/27 13:43:09;;;;;;;8.20;2.03;;;;;;;;;;5031168;28;20243;-70
2021/03/27 13:45:57;;;;;;;9.60;1.80;;;;;;;;;;5033730;28;20311;-70
2021/03/27 13:48:28;;;;;;;11.37;2.37;;;;;;;;;;5032534;28;20201;-70
2021/03/27 13:50:56;;;;;;;8.93;2.30;;;;;;;;;;5045650;28;20543;-70
2021/03/27 13:53:46;;;;;;;12.50;2.40;;;;;;;;;;5028132;28;20248;-69
2021/03/27 13:56:35;;;;;;;11.57;2.20;;;;;;;;;;5041418;28;20220;-69
2021/03/27 13:59:09;;;;;;;17.40;2.40;;;;;;;;;;5029760;28;20516;-70
2021/03/27 14:01:52;;;;;;;11.13;2.47;;;;;;;;;;5040966;28;20198;-70
2021/03/27 14:04:23;;;;;;;11.90;2.33;;;;;;;;;;5028970;28;20209;-69
2021/03/27 14:07:02;;;;;;;8.67;1.80;;;;;;;;;;5044520;28;20193;-69
2021/03/27 14:09:50;;;;;;;15.90;2.80;;;;;;;;;;5023921;28;20511;-69
2021/03/27 14:12:34;;;;;;;10.17;1.80;;;;;;;;;;5039056;28;20284;-70
2021/03/27 14:15:02;;;;;;;17.80;2.30;;;;;;;;;;4676090;28;9999745;-69
2021/03/27 14:17:54;;;;;;;7.97;2.17;;;;;;;;;;5040617;28;20229;-69
2021/03/27 14:20:32;;;;;;;13.63;2.57;;;;;;;;;;5031531;28;20274;-69
2021/03/27 14:23:31;;;;;;;12.40;2.30;;;;;;;;;;5038470;28;20284;-70
2021/03/27 14:26:20;;;;;;;10.20;2.37;;;;;;;;;;5034998;28;20272;-70
2021/03/27 14:28:51;;;;;;;11.77;2.43;;;;;;;;;;5029660;28;20186;-70
2021/03/27 14:31:31;;;;;;;15.60;2.77;;;;;;;;;;5035547;28;20790;-70
2021/03/27 14:34:01;;;;;;;12.20;2.70;;;;;;;;;;5032443;28;20195;-70
2021/03/27 14:36:46;;;;;;;16.37;2.87;;;;;;;;;;5030531;28;20222;-70
2021/03/27 14:39:40;;;;;;;11.77;2.70;;;;;;;;;;5032757;28;20189;-69
2021/03/27 14:42:13;;;;;;;13.07;1.90;;;;;;;;;;5029937;28;20221;-70
2021/03/27 14:45:14;;;;;;;10.18;2.40;;;;;;;;;;5028441;28;20247;-70
2021/03/27 14:48:01;;;;;;;12.23;2.38;;;;;;;;;;5035977;28;20640;-70
2021/03/27 14:50:49;;;;;;;17.48;2.08;;;;;;;;;;5026523;28;20255;-69
2021/03/27 14:53:20;;;;;;;11.15;2.30;;;;;;;;;;5034589;28;20196;-69
2021/03/27 14:55:52;;;;;;;9.90;2.20;;;;;;;;;;5029102;28;20208;-69
2021/03/27 14:58:29;;;;;;;14.53;2.47;;;;;;;;;;5034701;28;20190;-70
2021/03/27 15:01:06;;;;;;;12.90;2.60;;;;;;;;;;5029055;28;20311;-70
2021/03/27 15:03:56;;;;;;;15.90;2.53;;;;;;;;;;5033991;28;20212;-70
2021/03/27 15:06:42;;;;;;;10.70;2.57;;;;;;;;;;5022908;28;20227;-70
2021/03/27 15:09:13;;;;;;;12.70;2.87;;;;;;;;;;5033556;28;20189;-70
2021/03/27 15:11:53;;;;;;;12.40;2.53;;;;;;;;;;5025130;28;20650;-70
2021/03/27 15:14:52;;;;;;;11.50;2.13;;;;;;;;;;5034294;28;20210;-70
2021/03/27 15:17:49;;;;;;;13.70;1.90;;;;;;;;;;5025384;28;20190;-70
2021/03/27 15:20:26;;;;;;;9.13;2.00;;;;;;;;;;5033241;28;20218;-70
2021/03/27 15:22:54;;;;;;;18.17;3.90;;;;;;;;;;5028896;28;20755;-70
2021/03/27 15:28:40;;;;;;;15.67;2.67;;;;;;;;;;5028632;28;20278;-69
2021/03/27 15:31:21;;;;;;;12.60;2.20;;;;;;;;;;5034797;28;20181;-69
2021/03/27 15:34:38;;;;;;;11.67;2.50;;;;;;;;;;5028516;28;20258;-70
2021/03/27 15:37:24;;;;;;;12.67;2.40;;;;;;;;;;5033950;28;20305;-69
2021/03/27 15:39:54;;;;;;;13.20;2.23;;;;;;;;;;5032582;28;20513;-70
2021/03/27 15:42:38;;;;;;;16.40;2.30;;;;;;;;;;5036640;28;20185;-70
2021/03/27 15:45:31;;;;;;;14.70;2.90;;;;;;;;;;5032069;28;20648;-70
2021/03/27 15:48:07;;;;;;;11.00;2.43;;;;;;;;;;4679484;28;9999601;-70
2021/03/27 15:50:40;;;;;;;14.30;2.63;;;;;;;;;;5035550;28;20191;-70
2021/03/27 15:53:21;;;;;;;14.15;2.60;;;;;;;;;;5031724;28;20716;-70
2021/03/27 15:56:03;;;;;;;11.85;2.17;;;;;;;;;;5029695;28;20212;-69
2021/03/27 15:58:47;;;;;;;15.20;2.63;;;;;;;;;;5025126;28;20247;-69
2021/03/27 16:01:18;;;;;;;10.88;2.00;;;;;;;;;;5028870;28;20204;-69
2021/03/27 16:04:23;;;;;;;12.35;2.08;;;;;;;;;;5025831;28;20217;-69
2021/03/27 16:06:56;;;;;;;14.15;2.53;;;;;;;;;;5033969;28;20212;-69
2021/03/27 16:09:31;;;;;;;9.77;2.35;;;;;;;;;;5021156;28;20720;-69
2021/03/27 16:12:16;;;;;;;13.57;2.30;;;;;;;;;;5034452;28;20177;-69
2021/03/27 16:15:09;;;;;;;11.77;2.53;;;;;;;;;;5026384;28;20205;-69
2021/03/27 16:17:48;;;;;;;12.10;2.28;;;;;;;;;;5027839;28;20256;-70
2021/03/27 16:20:36;;;;;;;12.73;3.08;;;;;;;;;;5017919;28;20665;-69
2021/03/27 16:23:19;;;;;;;18.83;2.90;;;;;;;;;;5034524;28;20181;-69
2021/03/27 16:26:05;;;;;;;11.17;1.90;;;;;;;;;;5024493;28;20212;-69